Tarbes-Lourdes-Pyrénées Airport

LFBT · Hautes-Pyrénées, Occitanie, 法国

罗盘
风向 的 风向 290° Tarbes-Lourdes-Pyrénées Airport 2/20
风: 10 kt, 3 beaufort


10 kt
改变
0 ft 1.000 2.000 3.000 4.000 5.000
Cloud Cloud
FEW 1.900
Cloud Cloud Cloud Cloud Cloud Cloud Cloud Cloud
OVC 3.100
METAR LFBT 152100Z AUTO 29010KT 9999 FEW019 OVC031 10/07 Q1025 NOSIG

METAR Tarbes-Lourdes-Pyrénées Airport - LFBT/LDE

Tarbes-Lourdes-Pyrénées Airport是,法国中的中型机场。 该机场位于纬度43,17865和经度-0,00634。 该机场有一条跑道: 2/20. 本场的ICAO机场代码为LFBT。 该机场的IATA代码为LDE。 机场在Bordeaux FIR中。

该航空气象观测是针对Tarbes-Lourdes-Pyrénées Airport在2024年4月15日 23:00, 当地时间进行的。

机场观察

风向为290°,速度为10 kt。

可见度为10 km 或者更多。

有几云在1.900 ft的高度 和 乌云密布在3.100 ft的高度。 破损或更高的上限为3.100 ft。

温度为10 °C,阵风为6 °C。 露点为7 °C,相对湿度为82%。 海平面上的气压为1025 hPa (QNH)。

白天

今天,太阳从07:16升起,在20:43降落。 这适用于Tarbes-Lourdes-Pyrénées Airport,世界夏令时可能有所不同。 当地时间与世界标准时间之间的时差为+2 小时。 夏令时目前正在进行中。

公司介绍

在这个机场,你可以找到飞行俱乐部。 这个机场上的公司有Tarmac Aerosave 和 Aéroclub Léon Morane。

体会

到Vliegles.nl去找飞行课程,跳伞和其他飞行体验。 浏览页面,了解Tarbes-Lourdes-Pyrénées Airport附近所有可用的活动。 你也可以使用搜索功能来寻找你所在地附近的特定飞行课程、跳伞或其他飞行体验。

跑道

Id 标题 侧风 逆风 侧风 %
2/20 020°-200° 10 kt 100 %

逆风成分最大的方向会被突出显示,并用于横风计算。 这并不一定意味着这个方向在使用。

乌云

1.900 ft FEW 几云
3.100 ft OVC 乌云密布

温度 & 天气

温度 10 °C
露点 7 °C
相对湿度 82%
风寒 6 °C
Kp-index 0 (0-9)

白天

日出
07:16 (8:06)
中午
13:59
日落
20:43

小工具

你想在你的网站上有一个关于Tarbes-Lourdes-Pyrénées Airport的当前航空天气(METAR)的小部件吗?

显示HTML代码
报告变更